Time;durP1;ratioP1;P1;durP2;ratioP2;P2;SDS_P1;SDS_P2;PMS_P1;PMS_P2;Temp;Humidity;BMP_temperature;BMP_pressure;BME280_temperature;BME280_humidity;BME280_pressure;Samples;Min_cycle;Max_cycle;Signal;HPM_P1;HPM_P2
2023/05/21 00:01:47;;;;;;;8.80;7.50;;;;;;;13.27;75.59;100941.86;131022;1253;107521;-75
2023/05/21 00:04:52;;;;;;;10.70;7.60;;;;;;;13.25;75.47;100938.56;131019;1251;107424;-74
2023/05/21 00:07:58;;;;;;;9.60;6.80;;;;;;;13.22;75.62;100936.83;131092;1254;106735;-75
2023/05/21 00:11:04;;;;;;;9.60;7.40;;;;;;;13.18;75.61;100936.82;130989;1255;107559;-76
2023/05/21 00:14:09;;;;;;;9.70;7.40;;;;;;;13.13;75.36;100936.48;131122;1256;107192;-75
2023/05/21 00:17:16;;;;;;;8.30;6.70;;;;;;;13.04;75.46;100933.75;131103;1253;107263;-75
2023/05/21 00:20:22;;;;;;;7.10;6.30;;;;;;;12.97;75.60;100929.63;130924;1251;106795;-74
2023/05/21 00:23:31;;;;;;;6.30;5.60;;;;;;;12.91;75.36;100925.73;131121;1255;107516;-75
2023/05/21 00:26:37;;;;;;;9.50;6.40;;;;;;;12.86;75.65;100925.30;131148;1255;107299;-75
2023/05/21 00:29:42;;;;;;;6.70;5.90;;;;;;;12.87;75.58;100927.00;131195;1254;107406;-75
2023/05/21 00:32:48;;;;;;;6.80;6.00;;;;;;;12.88;75.51;100924.08;130937;1256;106148;-75
2023/05/21 00:35:54;;;;;;;7.70;6.10;;;;;;;12.87;75.41;100926.64;130991;1256;105474;-75
2023/05/21 00:39:01;;;;;;;8.10;6.40;;;;;;;12.83;75.55;100929.23;131010;1255;107578;-75
2023/05/21 00:42:07;;;;;;;7.20;6.40;;;;;;;12.78;75.40;100928.31;131202;1251;106417;-76
2023/05/21 00:45:13;;;;;;;10.40;6.90;;;;;;;12.72;75.36;100933.20;131134;1251;106434;-75
2023/05/21 00:48:20;;;;;;;12.30;7.50;;;;;;;12.65;75.39;100934.23;131003;1253;107239;-76
2023/05/21 00:51:29;;;;;;;10.80;7.40;;;;;;;12.60;75.52;100933.44;131125;1253;107415;-75
2023/05/21 00:54:35;;;;;;;12.00;8.10;;;;;;;12.54;75.40;100935.08;131133;1251;107288;-75
2023/05/21 00:57:41;;;;;;;14.60;8.40;;;;;;;12.46;75.49;100934.95;131123;1255;107485;-75
2023/05/21 01:00:47;;;;;;;12.90;7.60;;;;;;;12.44;75.51;100936.98;131010;1250;107204;-77
2023/05/21 01:03:56;;;;;;;12.30;8.40;;;;;;;12.43;75.44;100933.52;130927;1254;107154;-76
2023/05/21 01:07:01;;;;;;;13.00;9.30;;;;;;;12.40;75.47;100930.70;130973;1252;107315;-76
2023/05/21 01:10:10;;;;;;;12.00;8.80;;;;;;;12.41;75.45;100925.15;130964;1253;107398;-75
2023/05/21 01:13:16;;;;;;;11.30;8.30;;;;;;;12.38;75.43;100918.92;131037;1253;107557;-75
2023/05/21 01:16:22;;;;;;;10.80;7.90;;;;;;;12.35;75.48;100919.26;131151;1251;107400;-76
2023/05/21 01:19:28;;;;;;;12.20;8.50;;;;;;;12.31;75.30;100920.20;131127;1254;107438;-75
2023/05/21 01:22:35;;;;;;;14.70;10.10;;;;;;;12.24;75.15;100921.73;131028;1254;107543;-74
2023/05/21 01:25:41;;;;;;;21.40;12.20;;;;;;;12.16;75.18;100920.20;131134;1251;106281;-75
2023/05/21 01:28:47;;;;;;;17.20;10.90;;;;;;;12.11;75.33;100919.24;131048;1254;106602;-76
2023/05/21 01:32:04;;;;;;;16.30;9.20;;;;;;;12.07;75.43;100925.14;131106;1254;107500;-75
2023/05/21 01:35:14;;;;;;;9.70;6.90;;;;;;;12.03;75.23;100922.09;131098;1251;106477;-76
2023/05/21 01:38:26;;;;;;;9.50;6.20;;;;;;;12.04;75.19;100922.06;130982;1251;107420;-77
2023/05/21 01:41:33;;;;;;;;;;;;;;;12.01;75.16;100924.27;130962;1255;106685;-78
2023/05/21 01:44:40;;;;;;;8.90;6.30;;;;;;;12.01;75.25;100927.02;131010;1251;107520;-77
2023/05/21 01:47:48;;;;;;;9.70;7.00;;;;;;;11.95;75.25;100927.66;130987;1251;108184;-77
2023/05/21 01:50:55;;;;;;;8.00;6.40;;;;;;;11.90;75.24;100924.63;131061;1251;107550;-76
2023/05/21 01:54:01;;;;;;;7.20;6.00;;;;;;;11.85;75.01;100927.15;131152;1251;107510;-77
2023/05/21 01:57:07;;;;;;;8.00;5.60;;;;;;;11.79;75.06;100926.45;130966;1251;107558;-77
2023/05/21 02:00:14;;;;;;;8.80;6.10;;;;;;;11.74;75.27;100925.38;130773;1256;107432;-77
2023/05/21 02:03:29;;;;;;;7.60;5.90;;;;;;;11.67;75.24;100926.17;131021;1253;107364;-77
2023/05/21 02:06:38;;;;;;;7.50;5.80;;;;;;;11.58;75.40;100926.45;130875;1251;107625;-77
2023/05/21 02:09:43;;;;;;;6.00;4.50;;;;;;;11.56;75.38;100927.21;131153;1267;107395;-77
2023/05/21 02:12:49;;;;;;;7.20;5.30;;;;;;;11.54;75.19;100931.15;131129;1253;107398;-76
2023/05/21 02:15:55;;;;;;;7.70;5.90;;;;;;;11.53;75.47;100927.85;131113;1255;107450;-76
2023/05/21 02:19:03;;;;;;;7.00;5.20;;;;;;;11.52;75.29;100923.29;131181;1251;107421;-76
2023/05/21 02:22:09;;;;;;;6.70;5.20;;;;;;;11.51;75.22;100919.00;131000;1255;106668;-76
2023/05/21 02:25:17;;;;;;;7.00;5.20;;;;;;;11.50;75.38;100917.63;131035;1251;107354;-76
2023/05/21 02:28:22;;;;;;;7.40;6.10;;;;;;;11.49;75.07;100914.89;130996;1253;107226;-77
2023/05/21 02:31:28;;;;;;;9.90;5.70;;;;;;;11.46;74.96;100912.35;130954;1255;107504;-75
2023/05/21 02:34:36;;;;;;;8.70;5.60;;;;;;;11.41;74.92;100911.87;130922;1256;108099;-75
2023/05/21 02:37:42;;;;;;;6.10;5.50;;;;;;;11.34;74.97;100908.79;131038;1251;107309;-76
2023/05/21 02:40:48;;;;;;;7.80;6.00;;;;;;;11.30;75.11;100910.42;130960;1256;107460;-75
2023/05/21 02:43:54;;;;;;;8.90;6.10;;;;;;;11.27;75.09;100906.21;131063;1268;107189;-77
2023/05/21 02:46:59;;;;;;;6.60;5.40;;;;;;;11.24;74.69;100908.79;130915;1255;107507;-78
2023/05/21 02:50:08;;;;;;;8.70;5.80;;;;;;;11.20;75.17;100903.79;131069;1253;105839;-77
2023/05/21 02:53:16;;;;;;;;;;;;;;;11.19;75.05;100902.46;130946;1250;107529;-78
2023/05/21 02:56:22;;;;;;;6.50;5.40;;;;;;;11.21;75.12;100894.45;131220;1254;107573;-75
2023/05/21 02:59:27;;;;;;;7.80;6.00;;;;;;;11.24;74.96;100894.53;131124;1251;107388;-77
2023/05/21 03:02:33;;;;;;;7.80;6.00;;;;;;;11.28;74.93;100896.63;131177;1257;107233;-75
2023/05/21 03:05:38;;;;;;;7.20;5.90;;;;;;;11.31;74.78;100895.67;130987;1254;251601;-75
2023/05/21 03:08:44;;;;;;;8.10;6.30;;;;;;;11.33;74.98;100895.87;131178;1254;106531;-76
2023/05/21 03:11:50;;;;;;;9.50;6.50;;;;;;;11.33;74.78;100897.05;131165;1255;106540;-76
2023/05/21 03:14:55;;;;;;;7.70;6.20;;;;;;;11.34;75.06;100893.06;131095;1255;107507;-75
2023/05/21 03:18:01;;;;;;;7.70;6.30;;;;;;;11.36;74.86;100888.95;131073;1255;107534;-75
2023/05/21 03:21:07;;;;;;;8.30;6.00;;;;;;;11.39;75.13;100891.04;131162;1255;107442;-76
2023/05/21 03:24:13;;;;;;;7.00;6.00;;;;;;;11.41;75.03;100885.52;131241;1253;107497;-75
2023/05/21 03:27:19;;;;;;;8.10;5.90;;;;;;;11.45;75.09;100879.77;131112;1256;107279;-75
2023/05/21 03:30:26;;;;;;;11.40;7.90;;;;;;;11.49;75.08;100882.77;131136;1256;107425;-75
2023/05/21 03:33:57;;;;;;;12.40;8.70;;;;;;;11.58;75.51;100878.87;130988;1255;107362;-76
2023/05/21 03:37:06;;;;;;;15.00;10.20;;;;;;;11.79;75.34;100879.30;131047;1255;107531;-76
2023/05/21 03:40:13;;;;;;;20.80;12.20;;;;;;;12.00;75.15;100876.10;131036;1255;107381;-75
2023/05/21 03:43:20;;;;;;;14.50;10.80;;;;;;;12.18;74.99;100871.95;131010;1256;107555;-78
2023/05/21 03:46:26;;;;;;;14.60;9.90;;;;;;;12.36;75.20;100870.94;131044;1256;105783;-77
2023/05/21 03:49:41;;;;;;;11.50;7.90;;;;;;;12.58;75.35;100867.45;131132;1254;107481;-74
2023/05/21 03:52:47;;;;;;;10.30;7.80;;;;;;;12.81;75.24;100864.91;130977;1255;107452;-73
2023/05/21 03:55:54;;;;;;;11.00;7.00;;;;;;;13.04;75.18;100865.02;130888;1255;107305;-73
2023/05/21 03:59:01;;;;;;;11.70;7.90;;;;;;;13.25;75.11;100862.55;131066;1251;107378;-74
2023/05/21 04:02:07;;;;;;;13.10;8.20;;;;;;;13.47;75.17;100864.81;130815;1257;105683;-74
2023/05/21 04:05:13;;;;;;;11.30;8.40;;;;;;;13.72;75.22;100867.56;130980;1252;107375;-73
2023/05/21 04:08:19;;;;;;;12.10;8.40;;;;;;;13.95;75.05;100865.34;130920;1253;107477;-73
2023/05/21 04:11:24;;;;;;;10.90;8.20;;;;;;;14.20;75.05;100857.69;130854;1257;107382;-73
2023/05/21 04:14:30;;;;;;;10.40;9.10;;;;;;;14.45;75.01;100858.29;130964;1255;107528;-73
2023/05/21 04:17:35;;;;;;;12.70;8.60;;;;;;;14.68;75.28;100855.02;130939;1254;107505;-72
2023/05/21 04:20:41;;;;;;;11.10;9.10;;;;;;;14.91;75.04;100854.04;130922;1256;107438;-74
2023/05/21 04:23:47;;;;;;;12.60;9.00;;;;;;;15.13;75.12;100853.20;130912;1254;107438;-75
2023/05/21 04:27:01;;;;;;;11.60;8.80;;;;;;;15.33;75.19;100854.02;131039;1254;107237;-76
2023/05/21 04:30:08;;;;;;;13.00;8.70;;;;;;;15.55;75.18;100857.36;131007;1256;107344;-76
2023/05/21 04:33:16;;;;;;;12.00;8.40;;;;;;;15.80;75.14;100850.51;130967;1253;107385;-76
2023/05/21 04:36:23;;;;;;;11.20;8.40;;;;;;;16.04;75.33;100851.34;130988;1255;107523;-76
2023/05/21 04:39:30;;;;;;;12.10;9.20;;;;;;;16.26;75.26;100845.61;131004;1250;105527;-76
2023/05/21 04:42:35;;;;;;;14.70;9.70;;;;;;;16.48;75.22;100842.95;131152;1255;107539;-77
2023/05/21 04:45:42;;;;;;;13.10;10.10;;;;;;;16.66;75.18;100842.77;131129;1251;107375;-77
2023/05/21 04:48:49;;;;;;;10.80;8.10;;;;;;;16.80;75.10;100840.13;130875;1251;107365;-76
2023/05/21 04:51:55;;;;;;;12.30;9.30;;;;;;;16.97;74.81;100840.52;130970;1253;107329;-77
2023/05/21 04:55:01;;;;;;;11.40;9.10;;;;;;;17.14;74.72;100836.88;131084;1254;107410;-77
2023/05/21 04:58:07;;;;;;;25.00;19.10;;;;;;;17.31;74.22;100834.83;130872;1258;107517;-76
2023/05/21 05:01:14;;;;;;;19.20;17.20;;;;;;;17.47;74.04;100832.63;131015;1253;106401;-77
2023/05/21 05:04:20;;;;;;;14.00;12.20;;;;;;;17.61;73.62;100832.91;130946;1260;107230;-77
2023/05/21 05:07:25;;;;;;;9.70;8.60;;;;;;;17.75;73.07;100832.42;130895;1257;107494;-77
2023/05/21 05:10:31;;;;;;;7.90;6.50;;;;;;;17.89;72.76;100825.58;131118;1255;107517;-77
2023/05/21 05:13:36;;;;;;;7.70;5.50;;;;;;;18.01;71.85;100825.70;130861;1255;107508;-76
2023/05/21 05:16:42;;;;;;;8.10;5.40;;;;;;;18.09;71.64;100831.77;130897;1258;107505;-76
2023/05/21 05:19:47;;;;;;;10.60;5.50;;;;;;;18.21;71.46;100833.72;130851;1253;107538;-76
2023/05/21 05:22:53;;;;;;;6.80;4.90;;;;;;;18.35;71.06;100836.63;131001;1262;107244;-77
2023/05/21 05:25:59;;;;;;;9.70;6.00;;;;;;;18.47;71.05;100837.17;130875;1256;107459;-77
2023/05/21 05:29:05;;;;;;;7.80;4.50;;;;;;;18.61;70.90;100836.04;130899;1251;107389;-76
2023/05/21 05:32:10;;;;;;;5.40;4.10;;;;;;;18.72;70.58;100837.69;130882;1256;107547;-75
2023/05/21 05:35:16;;;;;;;4.40;3.60;;;;;;;18.81;70.28;100840.88;130996;1255;107766;-76
2023/05/21 05:38:22;;;;;;;4.40;3.60;;;;;;;18.90;69.92;100841.19;130959;1256;107386;-75
2023/05/21 05:41:28;;;;;;;4.80;3.90;;;;;;;18.96;69.55;100839.79;130945;1255;107595;-76
2023/05/21 05:44:34;;;;;;;6.00;4.10;;;;;;;18.99;69.82;100838.98;131000;1253;107334;-75
2023/05/21 05:47:40;;;;;;;6.20;3.90;;;;;;;19.03;69.73;100835.19;130944;1253;107507;-75
2023/05/21 05:50:46;;;;;;;6.00;3.80;;;;;;;19.08;69.28;100837.92;131102;1254;107505;-75
2023/05/21 05:53:53;;;;;;;4.80;3.60;;;;;;;19.10;68.68;100839.41;130949;1255;107458;-75
2023/05/21 05:56:58;;;;;;;10.60;5.80;;;;;;;19.14;68.61;100833.73;131041;1262;107431;-74
2023/05/21 06:00:05;;;;;;;11.70;6.20;;;;;;;19.18;68.70;100839.27;131120;1252;107392;-75
2023/05/21 06:03:17;;;;;;;11.20;5.90;;;;;;;19.23;67.72;100835.43;131069;1251;107373;-82
2023/05/21 06:06:23;;;;;;;29.50;16.40;;;;;;;19.25;67.99;100832.25;131156;1256;107510;-84
2023/05/21 06:09:28;;;;;;;10.70;6.40;;;;;;;19.28;67.65;100830.07;131130;1256;107514;-84
2023/05/21 06:12:34;;;;;;;8.20;5.60;;;;;;;19.30;67.40;100831.63;131065;1252;107221;-80
2023/05/21 06:15:41;;;;;;;7.00;3.70;;;;;;;19.31;66.54;100829.20;131147;1254;107479;-84
2023/05/21 06:18:47;;;;;;;4.20;3.50;;;;;;;19.28;66.58;100829.27;131036;1257;107591;-80
2023/05/21 06:21:53;;;;;;;3.70;3.00;;;;;;;19.28;65.79;100828.13;131190;1256;107427;-83
2023/05/21 06:24:58;;;;;;;4.60;3.10;;;;;;;19.29;65.62;100829.15;131133;1256;109283;-83
2023/05/21 06:28:04;;;;;;;4.50;3.10;;;;;;;19.32;65.61;100831.06;131034;1250;106545;-82
2023/05/21 06:31:12;;;;;;;4.20;2.90;;;;;;;19.34;65.21;100827.32;131286;1250;108812;-84
2023/05/21 06:34:18;;;;;;;4.60;2.90;;;;;;;19.38;64.43;100828.13;131403;1251;107428;-85
2023/05/21 06:37:24;;;;;;;4.50;3.00;;;;;;;19.40;64.42;100828.20;131330;1250;107233;-84
2023/05/21 06:40:30;;;;;;;5.30;3.70;;;;;;;19.47;64.30;100827.88;131372;1250;107599;-83
2023/05/21 06:43:36;;;;;;;3.90;3.20;;;;;;;19.52;63.88;100821.62;131370;1250;107458;-83
2023/05/21 06:47:14;;;;;;;3.60;2.50;;;;;;;19.59;63.55;100821.20;131254;1256;107373;-85
2023/05/21 06:50:20;;;;;;;4.90;3.00;;;;;;;19.63;63.44;100816.98;131172;1256;107520;-86
2023/05/21 06:53:25;;;;;;;3.30;2.50;;;;;;;19.66;63.06;100819.28;131131;1257;107556;-84
2023/05/21 06:56:31;;;;;;;4.30;2.40;;;;;;;19.73;63.06;100819.33;131202;1255;107492;-85
2023/05/21 06:59:36;;;;;;;3.20;2.50;;;;;;;19.77;62.78;100811.71;131426;1256;107576;-84
2023/05/21 07:02:42;;;;;;;4.30;2.60;;;;;;;19.84;62.59;100812.98;131174;1249;107527;-85
2023/05/21 07:05:48;;;;;;;3.00;2.30;;;;;;;19.91;62.29;100813.53;131177;1256;107187;-85
2023/05/21 07:08:54;;;;;;;3.90;2.60;;;;;;;19.98;62.12;100814.08;131236;1255;107411;-85
2023/05/21 07:12:01;;;;;;;3.70;2.60;;;;;;;20.04;61.84;100809.18;131190;1255;107408;-84
2023/05/21 07:15:07;;;;;;;4.60;2.70;;;;;;;20.12;61.63;100803.41;131084;1250;106528;-84
2023/05/21 07:18:13;;;;;;;3.80;2.40;;;;;;;20.18;60.72;100802.73;131150;1266;108178;-85
2023/05/21 07:21:19;;;;;;;4.20;2.70;;;;;;;20.21;60.00;100805.61;131145;1251;107523;-87
2023/05/21 07:24:26;;;;;;;4.00;2.60;;;;;;;20.27;59.20;100804.23;131701;1250;107463;-87
2023/05/21 07:27:32;;;;;;;3.50;2.50;;;;;;;20.34;59.07;100796.13;131629;1249;107475;-86
2023/05/21 07:30:38;;;;;;;5.10;2.30;;;;;;;20.40;58.65;100802.05;131422;1266;108135;-85
2023/05/21 07:33:47;;;;;;;3.50;3.00;;;;;;;20.46;59.31;100800.15;131259;1250;107441;-85
2023/05/21 07:36:54;;;;;;;2.90;2.60;;;;;;;20.52;59.23;100797.90;131274;1253;107367;-85
2023/05/21 07:40:00;;;;;;;3.70;2.40;;;;;;;20.58;59.02;100796.42;131634;1254;107436;-84
2023/05/21 07:43:06;;;;;;;3.60;2.30;;;;;;;20.64;59.12;100792.71;131564;1250;107524;-87
2023/05/21 07:46:13;;;;;;;2.60;2.30;;;;;;;20.70;58.54;100793.85;131603;1253;107507;-84
2023/05/21 07:49:20;;;;;;;5.80;2.70;;;;;;;20.78;58.71;100790.97;131262;1256;107409;-82
2023/05/21 07:52:26;;;;;;;5.20;2.40;;;;;;;20.86;56.98;100790.77;131186;1255;107515;-80
2023/05/21 07:55:32;;;;;;;5.40;2.20;;;;;;;20.90;57.05;100789.05;130964;1258;107507;-78
2023/05/21 07:58:39;;;;;;;3.10;2.00;;;;;;;20.94;56.27;100792.86;131085;1254;107432;-80
2023/05/21 08:01:45;;;;;;;2.20;2.00;;;;;;;20.97;55.71;100791.20;131091;1256;107423;-78
2023/05/21 08:04:53;;;;;;;3.90;3.00;;;;;;;21.01;54.99;100792.95;130982;1255;107432;-79
2023/05/21 08:07:59;;;;;;;3.30;2.20;;;;;;;21.08;55.20;100790.56;130882;1250;107360;-84
2023/05/21 08:11:05;;;;;;;5.70;3.20;;;;;;;21.13;54.87;100786.19;131093;1249;107521;-81
2023/05/21 08:14:12;;;;;;;5.70;2.40;;;;;;;21.20;54.01;100788.60;131282;1256;107415;-84
2023/05/21 08:17:18;;;;;;;3.10;2.10;;;;;;;21.26;53.53;100789.80;131540;1254;107361;-84
2023/05/21 08:20:23;;;;;;;3.40;2.30;;;;;;;21.28;52.85;100788.25;131120;1255;107349;-83
2023/05/21 08:23:30;;;;;;;3.40;2.20;;;;;;;21.31;53.20;100789.58;131002;1255;107564;-81
2023/05/21 08:26:38;;;;;;;1.60;1.40;;;;;;;21.37;52.33;100794.72;131196;1254;107356;-84
2023/05/21 08:29:44;;;;;;;4.30;1.60;;;;;;;21.40;51.45;100790.00;131307;1254;107731;-84
2023/05/21 08:32:50;;;;;;;4.40;2.80;;;;;;;21.43;50.23;100787.02;131213;1266;107210;-83
2023/05/21 08:35:59;;;;;;;3.70;2.20;;;;;;;21.51;50.99;100791.70;131323;1255;107535;-83
2023/05/21 08:39:07;;;;;;;4.00;2.30;;;;;;;21.58;50.64;100786.27;131519;1253;107470;-84
2023/05/21 08:42:27;;;;;;;3.60;2.20;;;;;;;21.64;50.09;100787.66;131275;1253;107343;-83
2023/05/21 08:45:39;;;;;;;2.40;2.10;;;;;;;21.72;51.09;100779.13;131273;1256;107508;-84
2023/05/21 08:48:46;;;;;;;3.70;2.00;;;;;;;21.84;50.38;100783.39;131388;1255;107408;-84
2023/05/21 08:51:55;;;;;;;3.20;1.60;;;;;;;21.91;49.82;100783.70;131187;1258;108034;-83
2023/05/21 08:55:03;;;;;;;2.70;1.90;;;;;;;21.94;49.53;100778.61;131368;1251;107475;-84
2023/05/21 08:58:09;;;;;;;4.40;2.10;;;;;;;21.99;49.92;100774.25;131105;1259;106701;-83
2023/05/21 09:01:18;;;;;;;3.20;2.00;;;;;;;22.07;50.51;100765.90;131065;1255;107550;-83
2023/05/21 09:04:26;;;;;;;6.10;1.80;;;;;;;22.15;49.80;100771.41;131165;1255;107353;-81
2023/05/21 09:07:40;;;;;;;2.80;1.70;;;;;;;22.16;48.71;100766.19;131014;1257;107500;-81
2023/05/21 09:11:03;;;;;;;;;;;;;;;22.16;48.09;100769.32;131034;1256;107503;-80
2023/05/21 09:14:16;;;;;;;3.60;1.70;;;;;;;22.16;48.27;100767.64;131053;1251;107444;-82
2023/05/21 09:17:42;;;;;;;2.20;1.60;;;;;;;22.22;48.36;100771.52;131019;1267;107535;-82
2023/05/21 09:21:26;;;;;;;;;;;;;;;22.32;48.28;100774.83;130879;1267;107504;-82
2023/05/21 09:24:34;;;;;;;3.70;1.90;;;;;;;22.38;47.81;100773.08;131020;1251;107452;-82
2023/05/21 09:27:39;;;;;;;3.50;1.90;;;;;;;22.44;47.60;100768.86;131090;1255;107505;-82
2023/05/21 09:30:52;;;;;;;3.20;2.10;;;;;;;22.47;47.73;100767.04;131450;1253;107522;-83
2023/05/21 09:33:58;;;;;;;2.30;2.10;;;;;;;22.56;47.52;100770.24;131330;1255;107721;-82
2023/05/21 09:37:06;;;;;;;2.70;2.10;;;;;;;22.58;47.23;100766.48;130990;1256;107464;-82
2023/05/21 09:40:16;;;;;;;3.40;2.10;;;;;;;22.61;47.44;100766.98;131104;1253;108071;-82
2023/05/21 09:43:23;;;;;;;3.00;2.20;;;;;;;22.67;47.34;100767.65;131153;1257;106690;-82
2023/05/21 09:46:37;;;;;;;3.20;2.00;;;;;;;22.76;47.91;100764.20;131162;1263;107563;-82
2023/05/21 09:49:45;;;;;;;3.90;2.00;;;;;;;22.85;47.35;100762.63;131002;1258;107481;-82
2023/05/21 09:52:51;;;;;;;3.40;2.00;;;;;;;22.88;46.90;100765.52;131022;1263;107529;-82
2023/05/21 09:55:59;;;;;;;4.10;1.90;;;;;;;22.90;46.51;100769.16;131088;1251;107539;-83
2023/05/21 09:59:05;;;;;;;2.80;2.00;;;;;;;22.86;46.06;100764.62;131174;1251;105828;-82
2023/05/21 10:02:22;;;;;;;2.90;1.90;;;;;;;22.89;46.78;100760.48;131279;1255;106676;-83
2023/05/21 10:05:29;;;;;;;4.60;2.00;;;;;;;22.97;46.95;100755.02;131183;1254;106503;-82
2023/05/21 10:08:41;;;;;;;3.10;1.90;;;;;;;23.05;45.77;100758.92;131227;1251;107124;-82
2023/05/21 10:11:49;;;;;;;2.00;1.80;;;;;;;23.03;45.23;100758.35;131413;1256;107436;-82
2023/05/21 10:15:00;;;;;;;2.10;1.80;;;;;;;23.01;45.49;100749.16;131360;1264;107511;-83
2023/05/21 10:18:06;;;;;;;2.30;1.90;;;;;;;23.01;44.85;100744.39;131389;1253;107571;-83
2023/05/21 10:21:12;;;;;;;2.10;1.90;;;;;;;23.04;45.19;100742.06;131393;1260;107524;-83
2023/05/21 10:24:18;;;;;;;1.80;1.60;;;;;;;23.08;44.65;100741.42;131386;1255;107450;-83
2023/05/21 10:27:25;;;;;;;3.10;2.00;;;;;;;23.09;43.64;100735.02;131370;1261;107378;-83
2023/05/21 10:30:31;;;;;;;2.10;1.70;;;;;;;23.09;44.34;100735.84;131289;1253;108136;-83
2023/05/21 10:33:38;;;;;;;2.10;1.80;;;;;;;23.12;44.35;100729.67;131157;1254;107335;-83
2023/05/21 10:36:46;;;;;;;3.80;1.80;;;;;;;23.15;44.52;100727.80;131583;1250;107431;-83
2023/05/21 10:39:52;;;;;;;2.50;2.20;;;;;;;23.21;43.80;100732.05;132989;1250;107415;-83
2023/05/21 10:43:34;;;;;;;2.60;1.80;;;;;;;23.17;42.60;100730.54;131529;1264;107705;-83
2023/05/21 10:46:54;;;;;;;;;;;;;;;23.11;43.01;100731.15;131541;1254;107374;-83
2023/05/21 10:50:24;;;;;;;3.60;1.80;;;;;;;23.11;42.70;100727.25;131131;1255;106525;-80
2023/05/21 10:53:46;;;;;;;2.90;1.90;;;;;;;23.13;42.92;100720.40;131328;1263;107399;-82
2023/05/21 10:57:00;;;;;;;2.30;2.00;;;;;;;23.15;42.75;100719.96;131428;1259;107303;-81
2023/05/21 11:00:07;;;;;;;3.10;2.10;;;;;;;23.15;42.01;100717.61;131267;1256;107436;-88
2023/05/21 11:03:15;;;;;;;3.30;1.90;;;;;;;23.18;42.79;100712.64;131566;1255;107515;-80
2023/05/21 11:06:27;;;;;;;2.10;1.80;;;;;;;23.24;42.38;100709.02;131241;1254;107460;-81
2023/05/21 11:09:33;;;;;;;4.20;2.10;;;;;;;23.28;42.62;100704.88;131250;1256;107348;-83
2023/05/21 11:13:15;;;;;;;3.60;2.20;;;;;;;23.30;42.68;100702.45;131412;1251;107540;-81
2023/05/21 11:16:21;;;;;;;;;;;;;;;23.29;42.45;100702.10;131442;1256;107562;-82
2023/05/21 11:19:37;;;;;;;2.30;2.10;;;;;;;23.31;42.47;100703.85;131375;1264;107485;-83
2023/05/21 11:22:42;;;;;;;2.80;2.10;;;;;;;23.34;42.86;100705.56;131543;1251;107558;-81
2023/05/21 11:26:00;;;;;;;3.40;2.10;;;;;;;23.39;42.41;100698.80;131393;1251;107554;-80
2023/05/21 11:29:13;;;;;;;2.00;1.80;;;;;;;23.43;42.52;100700.05;131435;1253;107511;-82
2023/05/21 11:32:19;;;;;;;2.10;1.90;;;;;;;23.44;42.20;100699.33;131297;1253;107387;-81
2023/05/21 11:35:27;;;;;;;2.30;2.00;;;;;;;23.44;42.03;100698.19;131312;1256;107209;-81
2023/05/21 11:38:33;;;;;;;2.90;2.00;;;;;;;23.48;42.57;100698.24;131407;1264;107241;-81
2023/05/21 11:41:53;;;;;;;2.50;2.00;;;;;;;23.53;41.96;100698.34;131250;1256;107509;-81
2023/05/21 11:45:01;;;;;;;2.50;2.00;;;;;;;23.52;41.75;100693.84;131353;1263;107505;-80
2023/05/21 11:48:12;;;;;;;2.90;1.90;;;;;;;23.56;41.88;100696.22;131199;1253;107465;-81
2023/05/21 11:51:20;;;;;;;2.20;2.00;;;;;;;23.59;41.50;100691.53;131247;1251;106939;-81
2023/05/21 11:54:25;;;;;;;5.00;2.20;;;;;;;23.64;41.19;100696.66;131361;1251;107540;-80
2023/05/21 11:57:38;;;;;;;2.40;1.80;;;;;;;23.62;40.86;100696.77;131305;1253;107570;-81
2023/05/21 12:00:45;;;;;;;2.60;2.10;;;;;;;23.61;40.39;100692.29;131208;1254;107794;-81
2023/05/21 12:03:52;;;;;;;2.70;1.80;;;;;;;23.62;40.36;100696.61;131194;1251;107234;-82
2023/05/21 12:06:58;;;;;;;4.90;2.20;;;;;;;23.61;40.26;100690.66;131273;1251;106893;-80
2023/05/21 12:10:04;;;;;;;1.90;1.80;;;;;;;23.62;40.48;100689.60;131012;1263;106738;-80
2023/05/21 12:13:09;;;;;;;3.40;1.90;;;;;;;23.64;40.73;100685.23;131194;1251;107536;-83
2023/05/21 12:16:15;;;;;;;2.70;2.00;;;;;;;23.67;40.81;100677.64;131241;1254;108661;-82
2023/05/21 12:19:21;;;;;;;2.90;2.00;;;;;;;23.70;40.72;100679.67;131164;1256;106013;-83
2023/05/21 12:22:29;;;;;;;3.20;2.10;;;;;;;23.71;40.38;100678.25;131127;1251;107241;-83
2023/05/21 12:25:34;;;;;;;3.20;2.10;;;;;;;23.75;40.33;100679.94;131471;1250;107537;-84
2023/05/21 12:28:40;;;;;;;4.10;1.80;;;;;;;23.77;40.87;100675.46;131392;1253;107365;-83
2023/05/21 12:31:50;;;;;;;2.70;1.90;;;;;;;23.84;40.45;100676.23;131284;1254;107477;-80
2023/05/21 12:34:57;;;;;;;3.10;2.00;;;;;;;23.85;39.88;100674.52;131228;1262;107393;-76
2023/05/21 12:38:03;;;;;;;3.20;2.10;;;;;;;23.84;39.42;100672.70;131256;1251;107525;-80
2023/05/21 12:41:09;;;;;;;3.00;2.00;;;;;;;23.84;39.91;100673.58;131627;1251;107541;-81
2023/05/21 12:44:17;;;;;;;2.40;2.00;;;;;;;23.86;39.63;100673.84;132970;1253;107581;-85
2023/05/21 12:47:31;;;;;;;4.20;2.10;;;;;;;23.88;39.77;100662.30;131591;1251;107449;-81
2023/05/21 12:50:40;;;;;;;3.00;2.10;;;;;;;23.91;39.85;100660.19;131252;1256;107521;-82
2023/05/21 12:53:55;;;;;;;2.40;2.00;;;;;;;23.93;39.45;100658.65;131074;1251;107522;-83
2023/05/21 12:57:17;;;;;;;3.40;2.20;;;;;;;23.95;39.41;100658.64;131208;1265;106903;-82
2023/05/21 13:00:27;;;;;;;4.40;2.30;;;;;;;23.93;39.43;100657.66;131262;1254;107496;-83
2023/05/21 13:03:33;;;;;;;3.50;2.10;;;;;;;23.93;39.52;100652.75;131312;1254;107520;-86
2023/05/21 13:06:45;;;;;;;2.80;2.30;;;;;;;23.95;39.54;100654.45;131505;1251;107234;-83
2023/05/21 13:09:52;;;;;;;3.90;1.90;;;;;;;23.95;39.44;100651.62;131227;1254;107503;-82
2023/05/21 13:12:57;;;;;;;3.80;2.10;;;;;;;23.99;39.73;100651.70;131567;1263;107463;-85
2023/05/21 13:16:03;;;;;;;2.20;2.00;;;;;;;24.00;39.28;100651.34;131317;1254;107529;-82
2023/05/21 13:19:08;;;;;;;3.30;2.00;;;;;;;23.89;38.95;100653.81;131611;1262;107354;-81
2023/05/21 13:22:14;;;;;;;2.90;2.00;;;;;;;23.81;38.90;100648.27;131331;1255;107469;-84
2023/05/21 13:25:23;;;;;;;3.10;1.60;;;;;;;23.84;38.71;100646.41;131326;1253;107420;-83
2023/05/21 13:28:28;;;;;;;2.50;1.80;;;;;;;23.87;38.57;100650.30;131238;1261;107239;-82
2023/05/21 13:31:34;;;;;;;3.00;1.90;;;;;;;23.91;39.07;100644.16;131171;1253;107455;-82
2023/05/21 13:34:39;;;;;;;3.00;1.90;;;;;;;23.96;38.76;100643.20;131619;1251;108224;-86
2023/05/21 13:37:45;;;;;;;4.40;1.90;;;;;;;23.95;38.98;100641.64;131922;1253;109355;-85
2023/05/21 13:40:51;;;;;;;2.80;2.00;;;;;;;23.94;39.02;100646.02;131536;1250;105651;-84
2023/05/21 13:43:57;;;;;;;3.00;2.00;;;;;;;23.90;38.93;100640.80;131392;1251;107503;-84
2023/05/21 13:47:02;;;;;;;2.60;1.90;;;;;;;23.90;38.83;100644.57;131248;1251;109302;-81
2023/05/21 13:50:09;;;;;;;5.80;1.90;;;;;;;23.91;38.85;100642.59;131376;1249;106517;-84
2023/05/21 13:53:15;;;;;;;2.70;2.20;;;;;;;23.92;38.67;100638.84;131294;1254;108031;-84
2023/05/21 13:56:21;;;;;;;3.30;1.90;;;;;;;23.94;38.53;100642.00;131137;1262;107563;-82
2023/05/21 13:59:27;;;;;;;3.20;1.80;;;;;;;23.95;38.27;100641.95;131423;1267;107222;-83
2023/05/21 14:02:33;;;;;;;3.40;2.20;;;;;;;23.95;38.34;100636.36;131074;1251;107483;-83
2023/05/21 14:05:39;;;;;;;2.40;2.10;;;;;;;23.97;38.01;100635.21;131448;1253;107574;-82
2023/05/21 14:08:44;;;;;;;2.10;1.90;;;;;;;24.03;38.45;100633.98;131211;1251;107158;-83
2023/05/21 14:11:50;;;;;;;3.30;2.10;;;;;;;24.12;38.31;100638.76;131213;1256;107491;-83
2023/05/21 14:14:56;;;;;;;2.40;2.10;;;;;;;24.18;38.34;100642.40;131574;1251;107516;-82